sensor_id;sensor_type;location;lat;lon;timestamp;P1;durP1;ratioP1;P2;durP2;ratioP2
28481;SDS011;15703;49.588;6.260;2023-05-07T00:04:31;3.97;;;3.67;;
28481;SDS011;15703;49.588;6.260;2023-05-07T00:06:58;4.13;;;3.77;;
28481;SDS011;15703;49.588;6.260;2023-05-07T00:09:24;3.43;;;3.13;;
28481;SDS011;15703;49.588;6.260;2023-05-07T00:11:46;3.97;;;3.57;;
28481;SDS011;15703;49.588;6.260;2023-05-07T00:14:09;5.67;;;3.60;;
28481;SDS011;15703;49.588;6.260;2023-05-07T00:16:31;3.70;;;3.40;;
28481;SDS011;15703;49.588;6.260;2023-05-07T00:18:54;5.83;;;3.67;;
28481;SDS011;15703;49.588;6.260;2023-05-07T00:21:16;4.10;;;3.80;;
28481;SDS011;15703;49.588;6.260;2023-05-07T00:23:39;5.20;;;4.10;;
28481;SDS011;15703;49.588;6.260;2023-05-07T00:26:01;5.07;;;4.53;;
28481;SDS011;15703;49.588;6.260;2023-05-07T00:28:23;4.60;;;4.13;;
28481;SDS011;15703;49.588;6.260;2023-05-07T00:30:46;6.13;;;4.23;;
28481;SDS011;15703;49.588;6.260;2023-05-07T00:33:08;3.90;;;3.60;;
28481;SDS011;15703;49.588;6.260;2023-05-07T00:35:31;6.00;;;4.27;;
28481;SDS011;15703;49.588;6.260;2023-05-07T00:37:53;3.90;;;3.60;;
28481;SDS011;15703;49.588;6.260;2023-05-07T00:40:16;4.70;;;4.03;;
28481;SDS011;15703;49.588;6.260;2023-05-07T00:42:38;5.17;;;4.23;;
28481;SDS011;15703;49.588;6.260;2023-05-07T00:45:01;4.97;;;4.10;;
28481;SDS011;15703;49.588;6.260;2023-05-07T00:47:24;4.37;;;3.97;;
28481;SDS011;15703;49.588;6.260;2023-05-07T00:49:47;4.97;;;3.60;;
28481;SDS011;15703;49.588;6.260;2023-05-07T00:52:16;4.33;;;3.93;;
28481;SDS011;15703;49.588;6.260;2023-05-07T00:54:40;6.63;;;4.40;;
28481;SDS011;15703;49.588;6.260;2023-05-07T00:57:03;4.10;;;3.70;;
28481;SDS011;15703;49.588;6.260;2023-05-07T00:59:28;4.57;;;4.13;;
28481;SDS011;15703;49.588;6.260;2023-05-07T01:01:51;4.83;;;3.70;;
28481;SDS011;15703;49.588;6.260;2023-05-07T01:04:13;4.37;;;4.07;;
28481;SDS011;15703;49.588;6.260;2023-05-07T01:06:36;4.67;;;4.23;;
28481;SDS011;15703;49.588;6.260;2023-05-07T01:08:59;4.20;;;3.80;;
28481;SDS011;15703;49.588;6.260;2023-05-07T01:11:21;4.43;;;4.03;;
28481;SDS011;15703;49.588;6.260;2023-05-07T01:13:44;4.40;;;4.00;;
28481;SDS011;15703;49.588;6.260;2023-05-07T01:16:08;4.23;;;3.90;;
28481;SDS011;15703;49.588;6.260;2023-05-07T01:18:30;4.37;;;3.97;;
28481;SDS011;15703;49.588;6.260;2023-05-07T01:20:54;5.37;;;4.47;;
28481;SDS011;15703;49.588;6.260;2023-05-07T01:23:17;4.87;;;4.23;;
28481;SDS011;15703;49.588;6.260;2023-05-07T01:25:40;4.47;;;4.13;;
28481;SDS011;15703;49.588;6.260;2023-05-07T01:28:03;5.77;;;4.03;;
28481;SDS011;15703;49.588;6.260;2023-05-07T01:30:29;4.77;;;3.70;;
28481;SDS011;15703;49.588;6.260;2023-05-07T01:33:03;5.37;;;3.97;;
28481;SDS011;15703;49.588;6.260;2023-05-07T01:35:29;8.60;;;4.10;;
28481;SDS011;15703;49.588;6.260;2023-05-07T01:37:51;4.40;;;4.00;;
28481;SDS011;15703;49.588;6.260;2023-05-07T01:40:14;3.63;;;3.33;;
28481;SDS011;15703;49.588;6.260;2023-05-07T01:42:36;3.80;;;3.50;;
28481;SDS011;15703;49.588;6.260;2023-05-07T01:44:59;3.63;;;3.30;;
28481;SDS011;15703;49.588;6.260;2023-05-07T01:47:22;3.20;;;3.00;;
28481;SDS011;15703;49.588;6.260;2023-05-07T01:49:45;4.47;;;3.80;;
28481;SDS011;15703;49.588;6.260;2023-05-07T02:21:06;3.80;;;3.50;;
28481;SDS011;15703;49.588;6.260;2023-05-07T02:23:28;3.80;;;3.60;;
28481;SDS011;15703;49.588;6.260;2023-05-07T02:25:51;4.10;;;3.70;;
28481;SDS011;15703;49.588;6.260;2023-05-07T02:28:13;3.73;;;3.43;;
28481;SDS011;15703;49.588;6.260;2023-05-07T02:30:43;4.70;;;3.87;;
28481;SDS011;15703;49.588;6.260;2023-05-07T02:33:05;4.60;;;4.03;;
28481;SDS011;15703;49.588;6.260;2023-05-07T02:35:30;4.17;;;3.87;;
28481;SDS011;15703;49.588;6.260;2023-05-07T02:37:52;4.83;;;4.37;;
28481;SDS011;15703;49.588;6.260;2023-05-07T02:40:16;4.30;;;4.00;;
28481;SDS011;15703;49.588;6.260;2023-05-07T02:42:38;5.07;;;4.57;;
28481;SDS011;15703;49.588;6.260;2023-05-07T02:45:01;5.47;;;4.70;;
28481;SDS011;15703;49.588;6.260;2023-05-07T02:47:24;5.60;;;5.07;;
28481;SDS011;15703;49.588;6.260;2023-05-07T02:49:51;5.03;;;4.63;;
28481;SDS011;15703;49.588;6.260;2023-05-07T02:52:13;5.33;;;4.83;;
28481;SDS011;15703;49.588;6.260;2023-05-07T02:54:36;5.97;;;4.63;;
28481;SDS011;15703;49.588;6.260;2023-05-07T02:56:58;5.40;;;4.97;;
28481;SDS011;15703;49.588;6.260;2023-05-07T02:59:22;4.77;;;4.40;;
28481;SDS011;15703;49.588;6.260;2023-05-07T03:01:44;5.70;;;5.13;;
28481;SDS011;15703;49.588;6.260;2023-05-07T03:04:07;5.80;;;5.30;;
28481;SDS011;15703;49.588;6.260;2023-05-07T03:06:29;5.10;;;4.60;;
28481;SDS011;15703;49.588;6.260;2023-05-07T03:08:52;4.60;;;4.20;;
28481;SDS011;15703;49.588;6.260;2023-05-07T03:11:14;5.80;;;4.93;;
28481;SDS011;15703;49.588;6.260;2023-05-07T03:13:36;4.87;;;4.30;;
28481;SDS011;15703;49.588;6.260;2023-05-07T03:15:59;4.90;;;4.47;;
28481;SDS011;15703;49.588;6.260;2023-05-07T03:18:21;4.83;;;4.40;;
28481;SDS011;15703;49.588;6.260;2023-05-07T03:20:44;5.23;;;4.83;;
28481;SDS011;15703;49.588;6.260;2023-05-07T03:23:06;6.40;;;5.27;;
28481;SDS011;15703;49.588;6.260;2023-05-07T03:25:28;5.73;;;4.57;;
28481;SDS011;15703;49.588;6.260;2023-05-07T03:27:51;5.90;;;4.73;;
28481;SDS011;15703;49.588;6.260;2023-05-07T03:30:17;5.80;;;5.37;;
28481;SDS011;15703;49.588;6.260;2023-05-07T03:32:40;5.37;;;4.97;;
28481;SDS011;15703;49.588;6.260;2023-05-07T03:35:05;6.30;;;5.37;;
28481;SDS011;15703;49.588;6.260;2023-05-07T03:37:28;5.80;;;5.30;;
28481;SDS011;15703;49.588;6.260;2023-05-07T03:39:51;5.63;;;4.83;;
28481;SDS011;15703;49.588;6.260;2023-05-07T03:42:14;5.60;;;5.10;;
28481;SDS011;15703;49.588;6.260;2023-05-07T03:44:36;6.73;;;5.00;;
28481;SDS011;15703;49.588;6.260;2023-05-07T03:46:59;5.33;;;4.83;;
28481;SDS011;15703;49.588;6.260;2023-05-07T03:49:22;6.37;;;5.37;;
28481;SDS011;15703;49.588;6.260;2023-05-07T03:51:44;5.07;;;4.57;;
28481;SDS011;15703;49.588;6.260;2023-05-07T03:54:07;4.97;;;4.57;;
28481;SDS011;15703;49.588;6.260;2023-05-07T03:56:31;5.30;;;4.80;;
28481;SDS011;15703;49.588;6.260;2023-05-07T03:58:53;5.73;;;4.80;;
28481;SDS011;15703;49.588;6.260;2023-05-07T04:01:16;5.17;;;4.70;;
28481;SDS011;15703;49.588;6.260;2023-05-07T04:03:38;5.40;;;5.00;;
28481;SDS011;15703;49.588;6.260;2023-05-07T04:06:01;4.90;;;4.37;;
28481;SDS011;15703;49.588;6.260;2023-05-07T04:08:24;5.40;;;4.90;;
28481;SDS011;15703;49.588;6.260;2023-05-07T04:10:48;5.27;;;4.77;;
28481;SDS011;15703;49.588;6.260;2023-05-07T04:13:16;5.97;;;5.47;;
28481;SDS011;15703;49.588;6.260;2023-05-07T04:15:40;6.77;;;5.10;;
28481;SDS011;15703;49.588;6.260;2023-05-07T04:18:04;5.47;;;4.90;;
28481;SDS011;15703;49.588;6.260;2023-05-07T04:20:27;4.80;;;4.40;;
28481;SDS011;15703;49.588;6.260;2023-05-07T04:22:55;6.50;;;4.70;;
28481;SDS011;15703;49.588;6.260;2023-05-07T04:25:18;4.50;;;4.10;;
28481;SDS011;15703;49.588;6.260;2023-05-07T04:27:40;5.50;;;5.00;;
28481;SDS011;15703;49.588;6.260;2023-05-07T04:30:02;6.40;;;4.90;;
28481;SDS011;15703;49.588;6.260;2023-05-07T04:32:30;5.33;;;4.63;;
28481;SDS011;15703;49.588;6.260;2023-05-07T04:34:53;6.73;;;4.80;;
28481;SDS011;15703;49.588;6.260;2023-05-07T04:37:15;5.63;;;4.30;;
28481;SDS011;15703;49.588;6.260;2023-05-07T04:39:38;4.80;;;4.50;;
28481;SDS011;15703;49.588;6.260;2023-05-07T04:42:01;4.53;;;4.20;;
28481;SDS011;15703;49.588;6.260;2023-05-07T04:44:24;4.27;;;3.97;;
28481;SDS011;15703;49.588;6.260;2023-05-07T04:46:47;4.63;;;4.23;;
28481;SDS011;15703;49.588;6.260;2023-05-07T04:49:29;7.33;;;4.10;;
28481;SDS011;15703;49.588;6.260;2023-05-07T04:51:52;5.20;;;4.30;;
28481;SDS011;15703;49.588;6.260;2023-05-07T04:54:17;4.40;;;4.03;;
28481;SDS011;15703;49.588;6.260;2023-05-07T04:56:39;3.53;;;3.23;;
28481;SDS011;15703;49.588;6.260;2023-05-07T04:59:02;4.17;;;3.80;;
28481;SDS011;15703;49.588;6.260;2023-05-07T05:01:25;5.00;;;3.77;;
28481;SDS011;15703;49.588;6.260;2023-05-07T05:03:50;5.17;;;3.97;;
28481;SDS011;15703;49.588;6.260;2023-05-07T05:06:13;4.00;;;3.70;;
28481;SDS011;15703;49.588;6.260;2023-05-07T05:08:36;3.90;;;3.50;;
28481;SDS011;15703;49.588;6.260;2023-05-07T05:10:58;3.87;;;3.57;;
28481;SDS011;15703;49.588;6.260;2023-05-07T05:13:23;4.33;;;3.83;;
28481;SDS011;15703;49.588;6.260;2023-05-07T05:15:45;4.00;;;3.60;;
28481;SDS011;15703;49.588;6.260;2023-05-07T05:18:10;3.83;;;3.50;;
28481;SDS011;15703;49.588;6.260;2023-05-07T05:20:34;3.77;;;3.47;;
28481;SDS011;15703;49.588;6.260;2023-05-07T05:22:59;4.53;;;3.40;;
28481;SDS011;15703;49.588;6.260;2023-05-07T05:25:23;3.20;;;2.90;;
28481;SDS011;15703;49.588;6.260;2023-05-07T05:27:46;3.67;;;2.90;;
28481;SDS011;15703;49.588;6.260;2023-05-07T05:30:10;5.53;;;3.13;;
28481;SDS011;15703;49.588;6.260;2023-05-07T05:33:23;3.60;;;3.30;;
28481;SDS011;15703;49.588;6.260;2023-05-07T05:36:38;4.17;;;2.80;;
28481;SDS011;15703;49.588;6.260;2023-05-07T05:39:04;2.63;;;2.43;;
28481;SDS011;15703;49.588;6.260;2023-05-07T05:41:30;3.20;;;2.23;;
28481;SDS011;15703;49.588;6.260;2023-05-07T05:44:36;2.73;;;2.53;;
28481;SDS011;15703;49.588;6.260;2023-05-07T05:50:24;3.42;;;2.58;;
28481;SDS011;15703;49.588;6.260;2023-05-07T05:52:49;3.10;;;2.13;;
28481;SDS011;15703;49.588;6.260;2023-05-07T05:55:32;2.53;;;2.22;;
28481;SDS011;15703;49.588;6.260;2023-05-07T05:58:16;2.33;;;2.13;;
28481;SDS011;15703;49.588;6.260;2023-05-07T06:00:45;1.83;;;1.73;;
28481;SDS011;15703;49.588;6.260;2023-05-07T06:03:31;1.70;;;1.60;;
28481;SDS011;15703;49.588;6.260;2023-05-07T06:06:16;2.78;;;1.60;;
28481;SDS011;15703;49.588;6.260;2023-05-07T06:08:54;2.53;;;1.80;;
28481;SDS011;15703;49.588;6.260;2023-05-07T06:11:23;1.70;;;1.52;;
28481;SDS011;15703;49.588;6.260;2023-05-07T06:13:46;3.45;;;2.00;;
28481;SDS011;15703;49.588;6.260;2023-05-07T06:19:35;2.30;;;2.03;;
28481;SDS011;15703;49.588;6.260;2023-05-07T06:21:59;3.28;;;1.73;;
28481;SDS011;15703;49.588;6.260;2023-05-07T06:24:25;1.75;;;1.63;;
28481;SDS011;15703;49.588;6.260;2023-05-07T06:26:50;1.65;;;1.55;;
28481;SDS011;15703;49.588;6.260;2023-05-07T06:29:14;1.90;;;1.50;;
28481;SDS011;15703;49.588;6.260;2023-05-07T06:31:37;1.80;;;1.70;;
28481;SDS011;15703;49.588;6.260;2023-05-07T06:34:04;2.45;;;1.90;;
28481;SDS011;15703;49.588;6.260;2023-05-07T06:59:54;2.17;;;1.88;;
28481;SDS011;15703;49.588;6.260;2023-05-07T07:03:31;2.22;;;1.95;;
28481;SDS011;15703;49.588;6.260;2023-05-07T07:05:56;2.85;;;2.30;;
28481;SDS011;15703;49.588;6.260;2023-05-07T07:08:21;2.83;;;1.70;;
28481;SDS011;15703;49.588;6.260;2023-05-07T07:11:34;3.88;;;1.95;;
28481;SDS011;15703;49.588;6.260;2023-05-07T07:13:58;1.95;;;1.75;;
28481;SDS011;15703;49.588;6.260;2023-05-07T07:16:31;1.55;;;1.45;;
28481;SDS011;15703;49.588;6.260;2023-05-07T07:18:54;3.65;;;1.75;;
28481;SDS011;15703;49.588;6.260;2023-05-07T07:21:29;2.05;;;1.42;;
28481;SDS011;15703;49.588;6.260;2023-05-07T07:23:51;3.60;;;1.70;;
28481;SDS011;15703;49.588;6.260;2023-05-07T07:26:15;1.95;;;1.50;;
28481;SDS011;15703;49.588;6.260;2023-05-07T07:28:44;2.10;;;1.63;;
28481;SDS011;15703;49.588;6.260;2023-05-07T07:31:16;6.20;;;1.90;;
28481;SDS011;15703;49.588;6.260;2023-05-07T07:33:40;1.90;;;1.67;;
28481;SDS011;15703;49.588;6.260;2023-05-07T07:36:06;1.98;;;1.45;;
28481;SDS011;15703;49.588;6.260;2023-05-07T07:38:29;2.05;;;1.70;;
28481;SDS011;15703;49.588;6.260;2023-05-07T07:40:52;2.17;;;1.42;;
28481;SDS011;15703;49.588;6.260;2023-05-07T07:44:00;3.58;;;1.80;;
28481;SDS011;15703;49.588;6.260;2023-05-07T07:46:24;2.38;;;1.45;;
28481;SDS011;15703;49.588;6.260;2023-05-07T07:48:48;2.15;;;1.35;;
28481;SDS011;15703;49.588;6.260;2023-05-07T07:51:11;3.40;;;1.67;;
28481;SDS011;15703;49.588;6.260;2023-05-07T07:53:34;3.90;;;1.60;;
28481;SDS011;15703;49.588;6.260;2023-05-07T07:55:59;5.85;;;1.30;;
28481;SDS011;15703;49.588;6.260;2023-05-07T07:58:27;1.65;;;1.25;;
28481;SDS011;15703;49.588;6.260;2023-05-07T08:00:50;1.48;;;1.23;;
28481;SDS011;15703;49.588;6.260;2023-05-07T08:03:12;1.52;;;1.42;;
28481;SDS011;15703;49.588;6.260;2023-05-07T08:05:39;1.95;;;1.55;;
28481;SDS011;15703;49.588;6.260;2023-05-07T08:08:01;1.92;;;1.38;;
28481;SDS011;15703;49.588;6.260;2023-05-07T08:10:27;3.25;;;1.48;;
28481;SDS011;15703;49.588;6.260;2023-05-07T08:12:56;2.47;;;1.50;;
28481;SDS011;15703;49.588;6.260;2023-05-07T08:15:19;1.70;;;1.52;;
28481;SDS011;15703;49.588;6.260;2023-05-07T08:17:43;2.58;;;1.23;;
28481;SDS011;15703;49.588;6.260;2023-05-07T08:20:07;1.40;;;1.30;;
28481;SDS011;15703;49.588;6.260;2023-05-07T08:22:31;2.90;;;1.40;;
28481;SDS011;15703;49.588;6.260;2023-05-07T08:24:53;1.52;;;1.25;;
28481;SDS011;15703;49.588;6.260;2023-05-07T08:27:16;1.30;;;1.20;;
28481;SDS011;15703;49.588;6.260;2023-05-07T08:29:38;2.92;;;1.55;;
28481;SDS011;15703;49.588;6.260;2023-05-07T08:32:01;2.67;;;1.48;;
28481;SDS011;15703;49.588;6.260;2023-05-07T08:34:24;2.05;;;1.38;;
28481;SDS011;15703;49.588;6.260;2023-05-07T08:36:48;1.80;;;1.30;;
28481;SDS011;15703;49.588;6.260;2023-05-07T08:39:15;2.40;;;1.33;;
28481;SDS011;15703;49.588;6.260;2023-05-07T08:41:40;2.00;;;1.67;;
28481;SDS011;15703;49.588;6.260;2023-05-07T08:44:02;1.58;;;1.20;;
28481;SDS011;15703;49.588;6.260;2023-05-07T08:46:25;3.72;;;1.60;;
28481;SDS011;15703;49.588;6.260;2023-05-07T08:48:57;1.27;;;1.17;;
28481;SDS011;15703;49.588;6.260;2023-05-07T08:51:21;2.55;;;1.50;;
28481;SDS011;15703;49.588;6.260;2023-05-07T08:53:46;2.53;;;1.25;;
28481;SDS011;15703;49.588;6.260;2023-05-07T08:56:18;3.97;;;1.48;;
28481;SDS011;15703;49.588;6.260;2023-05-07T08:58:45;4.07;;;1.55;;
28481;SDS011;15703;49.588;6.260;2023-05-07T09:01:08;4.53;;;1.40;;
28481;SDS011;15703;49.588;6.260;2023-05-07T09:03:32;2.13;;;1.40;;
28481;SDS011;15703;49.588;6.260;2023-05-07T09:05:54;1.77;;;1.30;;
28481;SDS011;15703;49.588;6.260;2023-05-07T09:08:18;1.77;;;1.23;;
28481;SDS011;15703;49.588;6.260;2023-05-07T09:10:41;2.15;;;1.50;;
28481;SDS011;15703;49.588;6.260;2023-05-07T09:13:04;1.30;;;1.20;;
28481;SDS011;15703;49.588;6.260;2023-05-07T09:15:28;1.83;;;1.30;;
28481;SDS011;15703;49.588;6.260;2023-05-07T09:17:50;3.03;;;1.38;;
28481;SDS011;15703;49.588;6.260;2023-05-07T09:20:13;3.75;;;1.40;;
28481;SDS011;15703;49.588;6.260;2023-05-07T09:22:37;1.98;;;1.30;;
28481;SDS011;15703;49.588;6.260;2023-05-07T09:25:03;2.05;;;1.67;;
28481;SDS011;15703;49.588;6.260;2023-05-07T09:27:26;3.15;;;0.90;;
28481;SDS011;15703;49.588;6.260;2023-05-07T09:29:50;3.35;;;1.15;;
28481;SDS011;15703;49.588;6.260;2023-05-07T09:32:12;0.88;;;0.88;;
28481;SDS011;15703;49.588;6.260;2023-05-07T09:34:37;3.03;;;1.70;;
28481;SDS011;15703;49.588;6.260;2023-05-07T09:37:01;1.33;;;1.10;;
28481;SDS011;15703;49.588;6.260;2023-05-07T09:39:26;1.50;;;1.10;;
28481;SDS011;15703;49.588;6.260;2023-05-07T09:41:48;1.63;;;0.90;;
28481;SDS011;15703;49.588;6.260;2023-05-07T09:44:23;1.58;;;1.30;;
28481;SDS011;15703;49.588;6.260;2023-05-07T09:46:47;2.88;;;1.80;;
28481;SDS011;15703;49.588;6.260;2023-05-07T09:49:20;1.30;;;1.20;;
28481;SDS011;15703;49.588;6.260;2023-05-07T09:51:49;2.17;;;1.48;;
28481;SDS011;15703;49.588;6.260;2023-05-07T09:54:13;2.38;;;1.20;;
28481;SDS011;15703;49.588;6.260;2023-05-07T09:56:39;2.00;;;1.27;;
28481;SDS011;15703;49.588;6.260;2023-05-07T09:59:04;1.85;;;1.10;;
28481;SDS011;15703;49.588;6.260;2023-05-07T10:01:27;1.35;;;1.20;;
28481;SDS011;15703;49.588;6.260;2023-05-07T10:03:50;2.40;;;1.23;;
28481;SDS011;15703;49.588;6.260;2023-05-07T10:06:13;3.33;;;1.45;;
28481;SDS011;15703;49.588;6.260;2023-05-07T10:08:37;2.90;;;1.50;;
28481;SDS011;15703;49.588;6.260;2023-05-07T10:11:03;2.45;;;1.75;;
28481;SDS011;15703;49.588;6.260;2023-05-07T10:13:25;1.52;;;1.00;;
28481;SDS011;15703;49.588;6.260;2023-05-07T10:15:50;1.90;;;1.50;;
28481;SDS011;15703;49.588;6.260;2023-05-07T10:18:14;2.67;;;1.30;;
28481;SDS011;15703;49.588;6.260;2023-05-07T10:20:41;2.58;;;1.70;;
28481;SDS011;15703;49.588;6.260;2023-05-07T10:23:05;2.65;;;1.42;;
28481;SDS011;15703;49.588;6.260;2023-05-07T10:25:35;2.05;;;1.30;;
28481;SDS011;15703;49.588;6.260;2023-05-07T10:28:05;2.05;;;1.45;;
28481;SDS011;15703;49.588;6.260;2023-05-07T10:33:10;3.75;;;1.30;;
28481;SDS011;15703;49.588;6.260;2023-05-07T10:35:40;1.70;;;1.33;;
28481;SDS011;15703;49.588;6.260;2023-05-07T10:38:04;1.90;;;1.45;;
28481;SDS011;15703;49.588;6.260;2023-05-07T10:40:30;2.03;;;1.38;;
28481;SDS011;15703;49.588;6.260;2023-05-07T10:42:57;3.35;;;1.70;;
28481;SDS011;15703;49.588;6.260;2023-05-07T10:45:24;3.67;;;1.90;;
28481;SDS011;15703;49.588;6.260;2023-05-07T10:50:52;2.40;;;1.58;;
28481;SDS011;15703;49.588;6.260;2023-05-07T10:53:34;3.53;;;1.95;;
28481;SDS011;15703;49.588;6.260;2023-05-07T10:58:50;3.05;;;1.98;;
28481;SDS011;15703;49.588;6.260;2023-05-07T11:04:14;4.13;;;2.10;;
28481;SDS011;15703;49.588;6.260;2023-05-07T11:15:06;2.47;;;1.90;;
28481;SDS011;15703;49.588;6.260;2023-05-07T11:17:31;4.07;;;1.98;;
28481;SDS011;15703;49.588;6.260;2023-05-07T11:20:01;2.10;;;1.90;;
28481;SDS011;15703;49.588;6.260;2023-05-07T11:22:40;3.30;;;1.63;;
28481;SDS011;15703;49.588;6.260;2023-05-07T11:25:25;2.38;;;1.55;;
28481;SDS011;15703;49.588;6.260;2023-05-07T11:27:53;2.03;;;1.83;;
28481;SDS011;15703;49.588;6.260;2023-05-07T11:30:17;2.72;;;1.67;;
28481;SDS011;15703;49.588;6.260;2023-05-07T11:32:40;2.58;;;1.55;;
28481;SDS011;15703;49.588;6.260;2023-05-07T11:35:02;3.88;;;2.00;;
28481;SDS011;15703;49.588;6.260;2023-05-07T11:37:25;2.85;;;1.80;;
28481;SDS011;15703;49.588;6.260;2023-05-07T11:42:45;2.25;;;1.70;;
28481;SDS011;15703;49.588;6.260;2023-05-07T11:45:07;2.05;;;1.60;;
28481;SDS011;15703;49.588;6.260;2023-05-07T11:47:30;3.15;;;2.28;;
28481;SDS011;15703;49.588;6.260;2023-05-07T11:49:53;2.10;;;1.98;;
28481;SDS011;15703;49.588;6.260;2023-05-07T11:52:16;2.17;;;1.80;;
28481;SDS011;15703;49.588;6.260;2023-05-07T11:54:39;3.00;;;1.92;;
28481;SDS011;15703;49.588;6.260;2023-05-07T11:57:01;1.80;;;1.65;;
28481;SDS011;15703;49.588;6.260;2023-05-07T11:59:24;1.75;;;1.60;;
28481;SDS011;15703;49.588;6.260;2023-05-07T12:01:46;2.13;;;1.70;;
28481;SDS011;15703;49.588;6.260;2023-05-07T12:04:08;2.92;;;1.75;;
28481;SDS011;15703;49.588;6.260;2023-05-07T12:06:31;2.58;;;2.00;;
28481;SDS011;15703;49.588;6.260;2023-05-07T12:08:53;3.35;;;1.48;;
28481;SDS011;15703;49.588;6.260;2023-05-07T12:11:18;3.08;;;1.50;;
28481;SDS011;15703;49.588;6.260;2023-05-07T12:13:43;1.85;;;1.60;;
28481;SDS011;15703;49.588;6.260;2023-05-07T12:16:06;1.63;;;1.42;;
28481;SDS011;15703;49.588;6.260;2023-05-07T12:18:29;2.63;;;1.48;;
28481;SDS011;15703;49.588;6.260;2023-05-07T12:20:51;3.08;;;1.38;;
28481;SDS011;15703;49.588;6.260;2023-05-07T12:23:13;1.83;;;1.63;;
28481;SDS011;15703;49.588;6.260;2023-05-07T12:25:37;2.28;;;1.50;;
28481;SDS011;15703;49.588;6.260;2023-05-07T12:28:00;2.60;;;1.65;;
28481;SDS011;15703;49.588;6.260;2023-05-07T12:30:22;1.92;;;1.33;;
28481;SDS011;15703;49.588;6.260;2023-05-07T12:32:45;3.55;;;1.83;;
28481;SDS011;15703;49.588;6.260;2023-05-07T12:35:07;2.25;;;1.52;;
28481;SDS011;15703;49.588;6.260;2023-05-07T12:37:30;4.45;;;1.65;;
28481;SDS011;15703;49.588;6.260;2023-05-07T12:40:08;1.38;;;1.15;;
28481;SDS011;15703;49.588;6.260;2023-05-07T12:42:32;2.53;;;1.30;;
28481;SDS011;15703;49.588;6.260;2023-05-07T12:44:55;2.17;;;1.20;;
28481;SDS011;15703;49.588;6.260;2023-05-07T12:47:17;2.60;;;1.35;;
28481;SDS011;15703;49.588;6.260;2023-05-07T12:49:40;3.45;;;1.77;;
28481;SDS011;15703;49.588;6.260;2023-05-07T12:52:02;3.15;;;1.58;;
28481;SDS011;15703;49.588;6.260;2023-05-07T12:54:35;3.10;;;1.75;;
28481;SDS011;15703;49.588;6.260;2023-05-07T12:57:06;2.47;;;1.75;;
28481;SDS011;15703;49.588;6.260;2023-05-07T12:59:39;3.05;;;2.20;;
28481;SDS011;15703;49.588;6.260;2023-05-07T13:02:02;4.10;;;2.53;;
28481;SDS011;15703;49.588;6.260;2023-05-07T13:04:25;2.90;;;1.52;;
28481;SDS011;15703;49.588;6.260;2023-05-07T13:06:47;3.60;;;2.08;;
28481;SDS011;15703;49.588;6.260;2023-05-07T13:09:09;2.97;;;1.92;;
28481;SDS011;15703;49.588;6.260;2023-05-07T13:11:31;2.28;;;2.08;;
28481;SDS011;15703;49.588;6.260;2023-05-07T13:13:54;2.33;;;2.10;;
28481;SDS011;15703;49.588;6.260;2023-05-07T13:16:16;3.95;;;2.30;;
28481;SDS011;15703;49.588;6.260;2023-05-07T13:18:42;2.65;;;2.38;;
28481;SDS011;15703;49.588;6.260;2023-05-07T13:21:07;1.95;;;1.60;;
28481;SDS011;15703;49.588;6.260;2023-05-07T13:23:29;2.78;;;2.00;;
28481;SDS011;15703;49.588;6.260;2023-05-07T13:25:51;3.60;;;2.30;;
28481;SDS011;15703;49.588;6.260;2023-05-07T13:28:15;2.83;;;2.00;;
28481;SDS011;15703;49.588;6.260;2023-05-07T13:30:37;1.95;;;1.75;;
28481;SDS011;15703;49.588;6.260;2023-05-07T13:32:59;2.05;;;1.85;;
28481;SDS011;15703;49.588;6.260;2023-05-07T13:35:22;4.32;;;1.92;;
28481;SDS011;15703;49.588;6.260;2023-05-07T13:37:44;2.47;;;1.98;;
28481;SDS011;15703;49.588;6.260;2023-05-07T13:40:06;3.30;;;1.95;;
28481;SDS011;15703;49.588;6.260;2023-05-07T13:42:29;4.75;;;2.47;;
28481;SDS011;15703;49.588;6.260;2023-05-07T13:44:52;2.88;;;1.77;;
28481;SDS011;15703;49.588;6.260;2023-05-07T13:47:14;5.35;;;2.85;;
28481;SDS011;15703;49.588;6.260;2023-05-07T13:49:37;3.20;;;2.25;;
28481;SDS011;15703;49.588;6.260;2023-05-07T13:51:59;3.45;;;2.10;;
28481;SDS011;15703;49.588;6.260;2023-05-07T13:54:21;4.30;;;2.38;;
28481;SDS011;15703;49.588;6.260;2023-05-07T13:56:43;3.30;;;3.00;;
28481;SDS011;15703;49.588;6.260;2023-05-07T13:59:05;3.53;;;2.38;;
28481;SDS011;15703;49.588;6.260;2023-05-07T14:01:28;3.05;;;2.30;;
28481;SDS011;15703;49.588;6.260;2023-05-07T14:03:50;2.60;;;2.40;;
28481;SDS011;15703;49.588;6.260;2023-05-07T14:06:13;2.85;;;2.33;;
28481;SDS011;15703;49.588;6.260;2023-05-07T14:08:35;2.13;;;1.92;;
28481;SDS011;15703;49.588;6.260;2023-05-07T14:10:57;3.42;;;2.28;;
28481;SDS011;15703;49.588;6.260;2023-05-07T14:13:19;2.47;;;2.10;;
28481;SDS011;15703;49.588;6.260;2023-05-07T14:15:42;3.17;;;2.08;;
28481;SDS011;15703;49.588;6.260;2023-05-07T14:18:07;2.15;;;1.85;;
28481;SDS011;15703;49.588;6.260;2023-05-07T14:20:29;3.90;;;2.50;;
28481;SDS011;15703;49.588;6.260;2023-05-07T14:22:52;3.90;;;2.30;;
28481;SDS011;15703;49.588;6.260;2023-05-07T14:25:17;4.28;;;2.75;;
28481;SDS011;15703;49.588;6.260;2023-05-07T14:27:43;2.63;;;2.40;;
28481;SDS011;15703;49.588;6.260;2023-05-07T14:30:06;3.60;;;2.83;;
28481;SDS011;15703;49.588;6.260;2023-05-07T14:32:28;4.38;;;2.50;;
28481;SDS011;15703;49.588;6.260;2023-05-07T14:34:51;2.80;;;2.60;;
28481;SDS011;15703;49.588;6.260;2023-05-07T14:37:13;3.83;;;2.03;;
28481;SDS011;15703;49.588;6.260;2023-05-07T14:39:35;4.68;;;2.35;;
28481;SDS011;15703;49.588;6.260;2023-05-07T14:41:58;3.28;;;2.60;;
28481;SDS011;15703;49.588;6.260;2023-05-07T14:44:20;3.97;;;2.42;;
28481;SDS011;15703;49.588;6.260;2023-05-07T14:46:43;5.13;;;2.85;;
28481;SDS011;15703;49.588;6.260;2023-05-07T14:49:05;4.13;;;2.88;;
28481;SDS011;15703;49.588;6.260;2023-05-07T14:51:30;6.55;;;3.03;;
28481;SDS011;15703;49.588;6.260;2023-05-07T14:53:52;3.13;;;2.65;;
28481;SDS011;15703;49.588;6.260;2023-05-07T14:56:14;2.88;;;2.58;;
28481;SDS011;15703;49.588;6.260;2023-05-07T14:58:38;5.22;;;3.47;;
28481;SDS011;15703;49.588;6.260;2023-05-07T15:01:00;6.25;;;3.25;;
28481;SDS011;15703;49.588;6.260;2023-05-07T15:03:23;4.45;;;3.28;;
28481;SDS011;15703;49.588;6.260;2023-05-07T15:05:45;3.42;;;2.70;;
28481;SDS011;15703;49.588;6.260;2023-05-07T15:08:07;4.18;;;2.92;;
28481;SDS011;15703;49.588;6.260;2023-05-07T15:10:30;4.80;;;2.83;;
28481;SDS011;15703;49.588;6.260;2023-05-07T15:12:53;6.70;;;3.22;;
28481;SDS011;15703;49.588;6.260;2023-05-07T15:15:16;3.80;;;2.92;;
28481;SDS011;15703;49.588;6.260;2023-05-07T15:17:38;3.97;;;2.92;;
28481;SDS011;15703;49.588;6.260;2023-05-07T15:20:00;4.45;;;3.30;;
28481;SDS011;15703;49.588;6.260;2023-05-07T15:22:24;4.60;;;3.25;;
28481;SDS011;15703;49.588;6.260;2023-05-07T15:24:46;3.50;;;3.20;;
28481;SDS011;15703;49.588;6.260;2023-05-07T15:27:09;4.53;;;2.78;;
28481;SDS011;15703;49.588;6.260;2023-05-07T15:29:32;4.97;;;2.92;;
28481;SDS011;15703;49.588;6.260;2023-05-07T15:31:55;4.28;;;2.80;;
28481;SDS011;15703;49.588;6.260;2023-05-07T15:34:18;4.38;;;3.00;;
28481;SDS011;15703;49.588;6.260;2023-05-07T15:36:40;3.75;;;2.85;;
28481;SDS011;15703;49.588;6.260;2023-05-07T15:39:03;4.03;;;2.38;;
28481;SDS011;15703;49.588;6.260;2023-05-07T15:41:25;4.35;;;2.58;;
28481;SDS011;15703;49.588;6.260;2023-05-07T15:43:48;3.30;;;2.47;;
28481;SDS011;15703;49.588;6.260;2023-05-07T15:46:11;4.25;;;3.25;;
28481;SDS011;15703;49.588;6.260;2023-05-07T15:48:33;4.80;;;3.40;;
28481;SDS011;15703;49.588;6.260;2023-05-07T15:50:56;5.97;;;2.85;;
28481;SDS011;15703;49.588;6.260;2023-05-07T15:53:18;3.05;;;2.78;;
28481;SDS011;15703;49.588;6.260;2023-05-07T15:55:41;4.03;;;2.67;;
28481;SDS011;15703;49.588;6.260;2023-05-07T15:58:04;5.00;;;3.30;;
28481;SDS011;15703;49.588;6.260;2023-05-07T16:00:27;4.97;;;3.08;;